createdAt,value
2018-12-09T00:00:43.625Z,18.00
2018-12-09T00:01:43.557Z,17.20
2018-12-09T00:02:43.521Z,18.20
2018-12-09T00:03:43.480Z,16.80
2018-12-09T00:04:43.437Z,15.80
2018-12-09T00:05:43.396Z,16.80
2018-12-09T00:06:43.371Z,15.50
2018-12-09T00:07:43.306Z,18.00
2018-12-09T00:08:43.269Z,16.60
2018-12-09T00:09:43.226Z,16.50
2018-12-09T00:10:43.203Z,16.40
2018-12-09T00:11:43.139Z,18.40
2018-12-09T00:12:43.093Z,17.90
2018-12-09T00:13:43.050Z,17.80
2018-12-09T00:14:43.020Z,16.60
2018-12-09T00:15:42.997Z,14.30
2018-12-09T00:16:42.933Z,16.70
2018-12-09T00:17:42.893Z,15.00
2018-12-09T00:18:42.843Z,17.20
2018-12-09T00:19:42.799Z,17.30
2018-12-09T00:20:42.782Z,14.10
2018-12-09T00:21:42.716Z,16.30
2018-12-09T00:22:42.684Z,15.10
2018-12-09T00:23:42.638Z,15.40
2018-12-09T00:24:42.590Z,14.80
2018-12-09T00:25:42.576Z,15.40
2018-12-09T00:26:42.511Z,17.20
2018-12-09T00:27:42.467Z,17.10
2018-12-09T00:28:42.450Z,15.70
2018-12-09T00:29:42.395Z,14.60
2018-12-09T00:30:42.341Z,15.20
2018-12-09T00:31:42.298Z,14.80
2018-12-09T00:32:42.255Z,16.50
2018-12-09T00:33:42.237Z,13.70
2018-12-09T00:34:42.174Z,14.10
2018-12-09T00:35:42.134Z,17.20
2018-12-09T00:36:42.119Z,14.90
2018-12-09T00:37:42.052Z,15.70
2018-12-09T00:38:42.001Z,14.50
2018-12-09T00:39:41.958Z,16.70
2018-12-09T00:40:41.926Z,16.80
2018-12-09T00:41:41.882Z,14.70
2018-12-09T00:42:43.642Z,13.20
2018-12-09T00:43:41.790Z,16.60
2018-12-09T00:44:41.775Z,16.40
2018-12-09T00:45:41.708Z,15.70
2018-12-09T00:46:41.672Z,14.10
2018-12-09T00:47:41.632Z,15.20
2018-12-09T00:48:41.588Z,16.30
2018-12-09T00:49:41.548Z,15.10
2018-12-09T00:50:41.517Z,15.60
2018-12-09T00:51:41.453Z,16.60
2018-12-09T00:52:41.412Z,18.40
2018-12-09T00:53:41.370Z,15.10
2018-12-09T00:54:41.371Z,17.90
2018-12-09T00:55:41.294Z,19.80
2018-12-09T00:56:41.246Z,20.00
2018-12-09T00:57:41.202Z,16.80
2018-12-09T00:58:41.167Z,15.70
2018-12-09T00:59:41.147Z,18.40
2018-12-09T01:00:41.078Z,15.90
2018-12-09T01:01:41.039Z,18.80
2018-12-09T01:02:42.869Z,19.50
2018-12-09T01:03:40.949Z,17.40
2018-12-09T01:04:40.933Z,17.10
2018-12-09T01:05:40.865Z,18.10
2018-12-09T01:06:40.829Z,17.60
2018-12-09T01:07:40.786Z,18.20
2018-12-09T01:08:40.744Z,19.70
2018-12-09T01:09:40.705Z,17.90
2018-12-09T01:10:40.676Z,21.90
2018-12-09T01:11:40.634Z,18.90
2018-12-09T01:12:40.572Z,18.30
2018-12-09T01:13:40.532Z,20.90
2018-12-09T01:14:40.507Z,21.30
2018-12-09T01:15:40.442Z,20.10
2018-12-09T01:16:40.397Z,19.70
2018-12-09T01:17:40.362Z,19.60
2018-12-09T01:18:40.321Z,17.90
2018-12-09T01:19:40.302Z,24.60
2018-12-09T01:20:40.259Z,20.70
2018-12-09T01:21:40.195Z,23.90
2018-12-09T01:22:40.156Z,23.00
2018-12-09T01:23:40.102Z,22.00
2018-12-09T01:24:40.070Z,26.00
2018-12-09T01:25:40.044Z,22.50
2018-12-09T01:26:39.982Z,20.40
2018-12-09T01:27:39.941Z,19.10
2018-12-09T01:28:39.917Z,21.80
2018-12-09T01:29:39.853Z,20.50
2018-12-09T01:30:39.814Z,20.10
2018-12-09T01:31:39.774Z,25.00
2018-12-09T01:32:39.729Z,19.30
2018-12-09T01:33:39.708Z,24.20
2018-12-09T01:34:39.639Z,21.80
2018-12-09T01:35:39.594Z,20.70
2018-12-09T01:36:39.552Z,19.80
2018-12-09T01:37:39.533Z,18.70
2018-12-09T01:38:39.478Z,19.20
2018-12-09T01:39:39.434Z,19.30
2018-12-09T01:40:39.390Z,18.60
2018-12-09T01:41:39.346Z,20.90
2018-12-09T01:42:39.325Z,19.50
2018-12-09T01:43:39.254Z,19.90
2018-12-09T01:44:39.218Z,20.10
2018-12-09T01:45:39.176Z,20.00
2018-12-09T01:46:39.129Z,19.40
2018-12-09T01:47:39.085Z,16.30
2018-12-09T01:48:39.069Z,19.60
2018-12-09T01:49:38.999Z,20.20
2018-12-09T01:50:38.964Z,17.00
2018-12-09T01:51:38.945Z,19.10
2018-12-09T01:52:38.878Z,20.50
2018-12-09T01:53:38.837Z,17.80
2018-12-09T01:54:38.786Z,20.60
2018-12-09T01:55:38.766Z,18.80
2018-12-09T01:56:38.704Z,22.10
2018-12-09T01:57:38.687Z,22.90
2018-12-09T01:58:38.623Z,18.90
2018-12-09T01:59:38.605Z,18.00
2018-12-09T02:00:38.532Z,20.30
2018-12-09T02:01:38.489Z,19.10
2018-12-09T02:02:38.455Z,18.80
2018-12-09T02:03:38.413Z,19.30
2018-12-09T02:04:38.394Z,20.30
2018-12-09T02:05:38.329Z,19.60
2018-12-09T02:06:38.276Z,16.20
2018-12-09T02:07:38.232Z,17.30
2018-12-09T02:08:38.193Z,20.40
2018-12-09T02:09:38.175Z,19.90
2018-12-09T02:10:38.117Z,15.80
2018-12-09T02:11:38.069Z,19.40
2018-12-09T02:12:38.054Z,18.40
2018-12-09T02:13:38.010Z,18.70
2018-12-09T02:14:37.961Z,17.40
2018-12-09T02:15:37.897Z,19.10
2018-12-09T02:16:37.862Z,18.40
2018-12-09T02:17:37.823Z,16.10
2018-12-09T02:18:37.790Z,17.40
2018-12-09T02:19:37.728Z,15.10
2018-12-09T02:20:37.683Z,16.40
2018-12-09T02:21:37.642Z,18.00
2018-12-09T02:22:37.606Z,18.90
2018-12-09T02:23:37.585Z,18.50
2018-12-09T02:24:37.546Z,19.40
2018-12-09T02:25:37.480Z,20.40
2018-12-09T02:26:37.427Z,18.90
2018-12-09T02:27:37.388Z,21.80
2018-12-09T02:28:37.344Z,20.20
2018-12-09T02:29:37.322Z,21.00
2018-12-09T02:30:37.265Z,23.00
2018-12-09T02:31:37.222Z,22.00
2018-12-09T02:32:37.177Z,21.40
2018-12-09T02:33:37.161Z,18.60
2018-12-09T02:34:37.095Z,20.80
2018-12-09T02:35:37.053Z,16.70
2018-12-09T02:36:37.017Z,19.50
2018-12-09T02:37:36.977Z,17.90
2018-12-09T02:38:36.918Z,14.30
2018-12-09T02:39:36.899Z,15.40
2018-12-09T02:40:36.835Z,19.20
2018-12-09T02:41:36.791Z,18.00
2018-12-09T02:42:36.752Z,20.00
2018-12-09T02:43:36.710Z,19.10
2018-12-09T02:44:36.691Z,17.00
2018-12-09T02:45:36.630Z,14.80
2018-12-09T02:46:36.576Z,14.20
2018-12-09T02:47:36.532Z,12.60
2018-12-09T02:48:36.521Z,11.80
2018-12-09T02:49:36.456Z,9.20
2018-12-09T02:50:36.406Z,8.60
2018-12-09T02:51:36.362Z,10.90
2018-12-09T02:52:36.324Z,12.60
2018-12-09T02:53:36.297Z,10.30
2018-12-09T02:54:36.260Z,8.80
2018-12-09T02:55:36.195Z,9.80
2018-12-09T02:56:36.150Z,8.00
2018-12-09T02:57:36.111Z,10.50
2018-12-09T02:58:36.071Z,8.20
2018-12-09T02:59:36.039Z,5.90
2018-12-09T03:00:35.972Z,7.90
2018-12-09T03:01:35.927Z,6.30
2018-12-09T03:02:35.894Z,6.90
2018-12-09T03:03:35.850Z,5.10
2018-12-09T03:04:35.822Z,7.10
2018-12-09T03:05:35.756Z,6.80
2018-12-09T03:06:35.744Z,9.20
2018-12-09T03:07:35.675Z,10.30
2018-12-09T03:08:35.655Z,11.50
2018-12-09T03:09:35.587Z,11.80
2018-12-09T03:10:35.539Z,10.40
2018-12-09T03:11:35.496Z,11.50
2018-12-09T03:12:35.475Z,14.10
2018-12-09T03:13:35.408Z,13.80
2018-12-09T03:14:35.373Z,15.40
2018-12-09T03:15:35.327Z,13.90
2018-12-09T03:16:35.287Z,14.80
2018-12-09T03:17:35.267Z,16.50
2018-12-09T03:18:35.193Z,15.30
2018-12-09T03:19:35.150Z,16.60
2018-12-09T03:20:35.110Z,17.90
2018-12-09T03:21:35.072Z,19.30
2018-12-09T03:22:35.043Z,17.60
2018-12-09T03:23:34.974Z,19.10
2018-12-09T03:24:34.955Z,17.50
2018-12-09T03:25:34.886Z,19.70
2018-12-09T03:26:34.852Z,18.00
2018-12-09T03:27:34.810Z,17.30
2018-12-09T03:28:34.764Z,19.80
2018-12-09T03:29:34.743Z,17.70
2018-12-09T03:30:34.694Z,19.40
2018-12-09T03:31:34.630Z,16.30
2018-12-09T03:32:34.615Z,21.90
2018-12-09T03:33:34.614Z,16.60
2018-12-09T03:34:34.515Z,21.80
2018-12-09T03:35:34.465Z,19.30
2018-12-09T03:36:34.416Z,17.00
2018-12-09T03:37:34.390Z,14.10
2018-12-09T03:38:34.333Z,12.90
2018-12-09T03:39:34.291Z,13.00
2018-12-09T03:40:34.268Z,12.90
2018-12-09T03:41:34.203Z,10.40
2018-12-09T03:42:34.184Z,12.10
2018-12-09T03:43:34.110Z,8.60
2018-12-09T03:44:34.066Z,9.30
2018-12-09T03:45:34.023Z,10.40
2018-12-09T03:46:33.990Z,8.40
2018-12-09T03:47:33.972Z,10.20
2018-12-09T03:48:33.901Z,8.60
2018-12-09T03:49:33.863Z,6.60
2018-12-09T03:50:33.831Z,9.40
2018-12-09T03:51:33.767Z,7.70
2018-12-09T03:52:33.757Z,7.10
2018-12-09T03:53:33.685Z,8.30
2018-12-09T03:54:33.638Z,7.30
2018-12-09T03:55:33.593Z,8.60
2018-12-09T03:56:33.548Z,7.00
2018-12-09T03:57:33.532Z,7.10
2018-12-09T03:58:33.471Z,6.70
2018-12-09T03:59:33.429Z,6.40
2018-12-09T04:00:33.414Z,5.70
2018-12-09T04:01:33.342Z,8.10
2018-12-09T04:02:33.294Z,5.30
2018-12-09T04:03:33.251Z,5.90
2018-12-09T04:04:33.205Z,6.70
2018-12-09T04:05:33.163Z,6.80
2018-12-09T04:06:33.151Z,7.30
2018-12-09T04:07:33.088Z,6.00
2018-12-09T04:08:33.034Z,6.80
2018-12-09T04:09:32.990Z,7.20
2018-12-09T04:10:32.978Z,5.50
2018-12-09T04:11:32.909Z,5.90
2018-12-09T04:12:32.883Z,7.10
2018-12-09T04:13:32.825Z,5.10
2018-12-09T04:14:32.873Z,5.50
2018-12-09T04:15:32.755Z,5.10
2018-12-09T04:16:32.714Z,5.00
2018-12-09T04:17:32.644Z,4.50
2018-12-09T04:18:32.612Z,4.00
2018-12-09T04:19:32.564Z,5.40
2018-12-09T04:20:32.523Z,5.60
2018-12-09T04:21:32.477Z,5.10
2018-12-09T04:22:32.447Z,6.10
2018-12-09T04:23:32.401Z,5.60
2018-12-09T04:24:32.348Z,5.50
2018-12-09T04:25:32.303Z,5.20
2018-12-09T04:26:32.279Z,5.20
2018-12-09T04:27:32.210Z,4.40
2018-12-09T04:28:32.169Z,5.80
2018-12-09T04:29:32.122Z,4.70
2018-12-09T04:30:32.090Z,6.10
2018-12-09T04:31:32.071Z,5.80
2018-12-09T04:32:32.005Z,6.00
2018-12-09T04:33:31.957Z,6.70
2018-12-09T04:34:31.912Z,5.40
2018-12-09T04:35:31.866Z,5.60
2018-12-09T04:36:31.850Z,6.50
2018-12-09T04:37:31.792Z,5.50
2018-12-09T04:38:31.741Z,5.50
2018-12-09T04:39:31.700Z,6.10
2018-12-09T04:40:31.650Z,5.60
2018-12-09T04:41:31.608Z,6.20
2018-12-09T04:42:31.591Z,5.50
2018-12-09T04:43:31.524Z,5.20
2018-12-09T04:44:31.483Z,5.40
2018-12-09T04:45:31.443Z,6.50
2018-12-09T04:46:31.415Z,7.10
2018-12-09T04:47:31.344Z,6.00
2018-12-09T04:48:31.302Z,7.70
2018-12-09T04:49:31.262Z,7.10
2018-12-09T04:50:31.224Z,7.00
2018-12-09T04:51:31.208Z,6.30
2018-12-09T04:52:31.139Z,6.30
2018-12-09T04:53:31.094Z,7.10
2018-12-09T04:54:31.049Z,7.50
2018-12-09T04:55:31.002Z,7.40
2018-12-09T04:56:30.967Z,6.90
2018-12-09T04:57:30.942Z,7.80
2018-12-09T04:58:30.871Z,8.00
2018-12-09T04:59:30.829Z,7.40
2018-12-09T05:00:30.783Z,6.50
2018-12-09T05:01:30.743Z,10.10
2018-12-09T05:02:30.736Z,7.30
2018-12-09T05:03:30.660Z,7.80
2018-12-09T05:04:30.619Z,7.10
2018-12-09T05:05:30.575Z,8.60
2018-12-09T05:06:30.527Z,7.20
2018-12-09T05:07:30.483Z,6.60
2018-12-09T05:08:30.462Z,5.70
2018-12-09T05:09:30.396Z,6.30
2018-12-09T05:10:30.362Z,6.80
2018-12-09T05:11:30.319Z,7.60
2018-12-09T05:12:30.268Z,5.50
2018-12-09T05:13:30.247Z,5.60
2018-12-09T05:14:30.189Z,6.70
2018-12-09T05:15:30.147Z,6.20
2018-12-09T05:16:30.104Z,6.40
2018-12-09T05:17:30.059Z,6.30
2018-12-09T05:18:30.038Z,6.10
2018-12-09T05:19:29.967Z,7.70
2018-12-09T05:20:29.926Z,6.70
2018-12-09T05:21:29.880Z,7.70
2018-12-09T05:22:29.845Z,7.60
2018-12-09T05:23:29.800Z,7.10
2018-12-09T05:24:29.777Z,7.30
2018-12-09T05:25:29.714Z,7.00
2018-12-09T05:26:29.664Z,6.40
2018-12-09T05:27:29.619Z,6.10
2018-12-09T05:28:29.587Z,5.30
2018-12-09T05:29:29.569Z,7.10
2018-12-09T05:30:29.490Z,8.10
2018-12-09T05:31:29.449Z,8.40
2018-12-09T05:32:29.404Z,9.30
2018-12-09T05:33:29.363Z,7.50
2018-12-09T05:34:29.329Z,8.30
2018-12-09T05:35:29.307Z,8.70
2018-12-09T05:36:29.241Z,6.40
2018-12-09T05:37:29.197Z,7.40
2018-12-09T05:38:29.146Z,6.60
2018-12-09T05:39:29.127Z,7.40
2018-12-09T05:40:29.065Z,8.70
2018-12-09T05:41:29.016Z,8.90
2018-12-09T05:42:28.983Z,8.20
2018-12-09T05:43:28.939Z,8.10
2018-12-09T05:44:28.913Z,8.70
2018-12-09T05:45:28.869Z,8.80
2018-12-09T05:46:28.812Z,9.00
2018-12-09T05:47:28.767Z,7.20
2018-12-09T05:48:28.726Z,8.10
2018-12-09T05:49:28.682Z,6.60
2018-12-09T05:50:28.654Z,6.80
2018-12-09T05:51:28.609Z,11.20
2018-12-09T05:52:28.545Z,7.50
2018-12-09T05:53:28.501Z,9.70
2018-12-09T05:54:28.467Z,9.80
2018-12-09T05:55:28.443Z,6.70
2018-12-09T05:56:28.379Z,8.00
2018-12-09T05:57:28.338Z,9.10
2018-12-09T05:58:28.287Z,8.20
2018-12-09T05:59:28.244Z,9.90
2018-12-09T06:00:28.234Z,8.80
2018-12-09T06:01:28.191Z,9.10
2018-12-09T06:02:28.116Z,7.60
2018-12-09T06:03:28.072Z,9.50
2018-12-09T06:04:28.025Z,9.70
2018-12-09T06:05:27.983Z,12.10
2018-12-09T06:06:27.949Z,9.80
2018-12-09T06:07:27.926Z,12.50
2018-12-09T06:08:27.885Z,13.40
2018-12-09T06:09:27.819Z,10.20
2018-12-09T06:10:27.771Z,10.20
2018-12-09T06:11:27.730Z,13.40
2018-12-09T06:12:27.682Z,10.60
2018-12-09T06:13:27.664Z,9.70
2018-12-09T06:14:27.606Z,11.00
2018-12-09T06:15:27.558Z,11.30
2018-12-09T06:16:27.510Z,11.00
2018-12-09T06:17:27.467Z,11.50
2018-12-09T06:18:27.462Z,12.00
2018-12-09T06:19:27.388Z,14.50
2018-12-09T06:20:27.345Z,11.20
2018-12-09T06:21:27.301Z,9.90
2018-12-09T06:22:27.250Z,14.50
2018-12-09T06:23:27.207Z,13.00
2018-12-09T06:24:27.200Z,12.90
2018-12-09T06:25:27.125Z,11.30
2018-12-09T06:26:27.084Z,15.70
2018-12-09T06:27:27.041Z,13.10
2018-12-09T06:28:26.998Z,14.40
2018-12-09T06:29:26.957Z,15.40
2018-12-09T06:30:26.930Z,15.20
2018-12-09T06:31:26.860Z,12.60
2018-12-09T06:32:26.825Z,14.40
2018-12-09T06:33:26.784Z,15.10
2018-12-09T06:34:26.735Z,14.30
2018-12-09T06:35:26.711Z,15.70
2018-12-09T06:36:26.645Z,15.70
2018-12-09T06:37:26.603Z,14.90
2018-12-09T06:38:26.566Z,15.50
2018-12-09T06:39:26.525Z,15.50
2018-12-09T06:40:26.507Z,16.50
2018-12-09T06:41:26.439Z,16.10
2018-12-09T06:42:26.386Z,16.40
2018-12-09T06:43:26.342Z,17.10
2018-12-09T06:44:26.299Z,14.70
2018-12-09T06:45:26.257Z,16.10
2018-12-09T06:46:26.244Z,14.90
2018-12-09T06:47:26.202Z,15.10
2018-12-09T06:48:26.129Z,14.30
2018-12-09T06:49:26.083Z,15.70
2018-12-09T06:50:26.051Z,18.90
2018-12-09T06:51:26.003Z,15.30
2018-12-09T06:52:25.981Z,20.00
2018-12-09T06:53:25.921Z,14.10
2018-12-09T06:54:25.867Z,19.80
2018-12-09T06:55:25.823Z,17.50
2018-12-09T06:56:25.778Z,16.80
2018-12-09T06:57:25.773Z,19.90
2018-12-09T06:58:25.700Z,18.20
2018-12-09T06:59:25.659Z,17.20
2018-12-09T07:00:25.664Z,18.90
2018-12-09T07:01:25.571Z,16.60
2018-12-09T07:02:25.522Z,19.90
2018-12-09T07:03:25.504Z,19.70
2018-12-09T07:04:25.452Z,19.80
2018-12-09T07:05:25.396Z,15.80
2018-12-09T07:06:25.344Z,17.60
2018-12-09T07:07:25.306Z,19.90
2018-12-09T07:08:25.284Z,19.30
2018-12-09T07:09:25.219Z,17.70
2018-12-09T07:10:25.185Z,18.20
2018-12-09T07:11:25.139Z,15.60
2018-12-09T07:12:25.099Z,20.70
2018-12-09T07:13:25.076Z,19.60
2018-12-09T07:14:25.118Z,16.30
2018-12-09T07:15:24.959Z,17.40
2018-12-09T07:16:24.917Z,20.30
2018-12-09T07:17:24.873Z,18.50
2018-12-09T07:18:24.836Z,18.90
2018-12-09T07:19:24.820Z,19.00
2018-12-09T07:20:24.747Z,17.00
2018-12-09T07:21:24.705Z,17.80
2018-12-09T07:22:24.664Z,18.60
2018-12-09T07:23:24.618Z,15.70
2018-12-09T07:24:24.601Z,14.00
2018-12-09T07:25:24.538Z,17.00
2018-12-09T07:26:24.486Z,18.30
2018-12-09T07:27:24.444Z,17.30
2018-12-09T07:28:24.400Z,16.60
2018-12-09T07:29:24.382Z,17.70
2018-12-09T07:30:24.321Z,18.50
2018-12-09T07:31:24.277Z,17.20
2018-12-09T07:32:24.234Z,14.50
2018-12-09T07:33:24.192Z,16.80
2018-12-09T07:34:24.142Z,15.60
2018-12-09T07:35:24.123Z,16.60
2018-12-09T07:36:24.063Z,14.90
2018-12-09T07:37:24.019Z,18.20
2018-12-09T07:38:23.969Z,17.70
2018-12-09T07:39:23.949Z,16.50
2018-12-09T07:40:23.904Z,16.50
2018-12-09T07:41:23.840Z,17.10
2018-12-09T07:42:23.804Z,16.70
2018-12-09T07:43:23.762Z,17.90
2018-12-09T07:44:23.744Z,17.70
2018-12-09T07:45:23.673Z,15.90
2018-12-09T07:46:23.627Z,16.80
2018-12-09T07:47:23.582Z,18.80
2018-12-09T07:48:23.539Z,17.90
2018-12-09T07:49:23.501Z,15.20
2018-12-09T07:50:23.481Z,17.20
2018-12-09T07:51:23.416Z,15.40
2018-12-09T07:52:23.369Z,15.20
2018-12-09T07:53:23.326Z,17.00
2018-12-09T07:54:23.289Z,16.30
2018-12-09T07:55:23.275Z,15.60
2018-12-09T07:56:23.205Z,18.90
2018-12-09T07:57:23.160Z,18.70
2018-12-09T07:58:23.110Z,16.70
2018-12-09T07:59:23.067Z,19.00
2018-12-09T08:00:23.025Z,17.20
2018-12-09T08:01:23.010Z,17.10
2018-12-09T08:02:22.945Z,14.20
2018-12-09T08:03:22.903Z,16.20
2018-12-09T08:04:22.860Z,14.80
2018-12-09T08:05:22.846Z,16.70
2018-12-09T08:06:22.768Z,14.70
2018-12-09T08:07:22.724Z,15.70
2018-12-09T08:08:22.693Z,14.40
2018-12-09T08:09:22.645Z,14.50
2018-12-09T08:10:22.600Z,18.70
2018-12-09T08:11:22.578Z,12.80
2018-12-09T08:12:22.516Z,13.10
2018-12-09T08:13:22.471Z,16.80
2018-12-09T08:14:22.433Z,14.20
2018-12-09T08:15:22.391Z,14.30
2018-12-09T08:16:22.377Z,14.90
2018-12-09T08:17:22.306Z,18.70
2018-12-09T08:18:22.258Z,14.70
2018-12-09T08:19:22.216Z,16.90
2018-12-09T08:20:22.171Z,14.00
2018-12-09T08:21:22.127Z,12.60
2018-12-09T08:22:22.117Z,16.30
2018-12-09T08:23:22.048Z,14.00
2018-12-09T08:24:22.030Z,11.50
2018-12-09T08:25:21.971Z,14.20
2018-12-09T08:26:21.929Z,12.70
2018-12-09T08:27:21.904Z,13.70
2018-12-09T08:28:21.842Z,14.80
2018-12-09T08:29:21.796Z,16.50
2018-12-09T08:30:21.749Z,14.90
2018-12-09T08:31:21.704Z,13.60
2018-12-09T08:32:21.684Z,14.30
2018-12-09T08:33:21.621Z,15.80
2018-12-09T08:34:21.586Z,13.80
2018-12-09T08:35:21.549Z,15.80
2018-12-09T08:36:21.531Z,17.00
2018-12-09T08:37:21.461Z,13.90
2018-12-09T08:38:21.408Z,15.60
2018-12-09T08:39:21.365Z,13.70
2018-12-09T08:40:21.331Z,15.70
2018-12-09T08:41:21.286Z,15.50
2018-12-09T08:42:21.264Z,15.10
2018-12-09T08:43:21.202Z,14.90
2018-12-09T08:44:21.157Z,15.80
2018-12-09T08:45:21.118Z,16.30
2018-12-09T08:46:21.093Z,14.10
2018-12-09T08:47:21.033Z,15.20
2018-12-09T08:48:21.013Z,18.60
2018-12-09T08:49:20.949Z,14.00
2018-12-09T08:50:20.928Z,14.20
2018-12-09T08:51:20.855Z,17.60
2018-12-09T08:52:20.844Z,16.30
2018-12-09T08:53:20.772Z,13.60
2018-12-09T08:54:20.738Z,14.30
2018-12-09T08:55:20.696Z,15.10
2018-12-09T08:56:20.665Z,15.50
2018-12-09T08:57:20.599Z,16.10
2018-12-09T08:58:20.568Z,14.10
2018-12-09T08:59:20.548Z,14.30
2018-12-09T09:00:20.505Z,14.60
2018-12-09T09:01:20.439Z,13.40
2018-12-09T09:02:20.391Z,12.60
2018-12-09T09:03:20.347Z,12.70
2018-12-09T09:04:20.306Z,14.40
2018-12-09T09:05:20.284Z,15.30
2018-12-09T09:06:20.232Z,15.10
2018-12-09T09:07:20.186Z,15.20
2018-12-09T09:08:20.143Z,14.80
2018-12-09T09:09:20.100Z,14.90
2018-12-09T09:10:21.992Z,16.80
2018-12-09T09:11:20.010Z,14.80
2018-12-09T09:12:20.079Z,12.80
2018-12-09T09:13:19.933Z,14.50
2018-12-09T09:14:19.885Z,14.40
2018-12-09T09:15:19.862Z,10.20
2018-12-09T09:16:19.825Z,13.50
2018-12-09T09:17:19.756Z,14.60
2018-12-09T09:18:19.718Z,12.40
2018-12-09T09:19:19.681Z,12.90
2018-12-09T09:20:19.637Z,14.10
2018-12-09T09:21:19.596Z,16.60
2018-12-09T09:22:19.572Z,13.80
2018-12-09T09:23:19.502Z,14.30
2018-12-09T09:24:19.461Z,13.70
2018-12-09T09:25:19.418Z,11.50
2018-12-09T09:26:19.383Z,13.80
2018-12-09T09:27:19.341Z,15.50
2018-12-09T09:28:19.318Z,14.10
2018-12-09T09:29:19.250Z,10.90
2018-12-09T09:30:19.211Z,14.00
2018-12-09T09:31:19.168Z,13.20
2018-12-09T09:32:19.128Z,14.70
2018-12-09T09:33:19.084Z,14.60
2018-12-09T09:34:19.059Z,12.40
2018-12-09T09:35:18.991Z,14.40
2018-12-09T09:36:18.950Z,11.30
2018-12-09T09:37:18.909Z,14.00
2018-12-09T09:38:18.871Z,13.80
2018-12-09T09:39:18.859Z,12.60
2018-12-09T09:40:18.787Z,13.60
2018-12-09T09:41:18.747Z,13.00
2018-12-09T09:42:18.698Z,13.80
2018-12-09T09:43:18.656Z,13.30
2018-12-09T09:44:18.619Z,12.20
2018-12-09T09:45:18.601Z,12.10
2018-12-09T09:46:18.550Z,10.30
2018-12-09T09:47:18.657Z,11.00
2018-12-09T09:48:18.443Z,13.40
2018-12-09T09:49:18.397Z,12.70
2018-12-09T09:50:18.368Z,12.80
2018-12-09T09:52:50.393Z,12.40
2018-12-09T09:53:50.256Z,11.20
2018-12-09T09:54:50.224Z,12.40
2018-12-09T09:55:50.176Z,12.80
2018-12-09T09:56:50.144Z,13.20
2018-12-09T09:57:50.253Z,16.30
2018-12-09T09:58:50.048Z,14.30
2018-12-09T09:59:50.027Z,11.10
2018-12-09T10:00:49.965Z,14.20
2018-12-09T10:01:49.954Z,15.00
2018-12-09T10:02:49.898Z,15.40
2018-12-09T10:03:49.846Z,14.40
2018-12-09T10:04:49.815Z,10.40
2018-12-09T10:05:49.770Z,11.90
2018-12-09T10:06:49.703Z,13.30
2018-12-09T10:07:49.717Z,12.70
2018-12-09T10:08:49.627Z,12.90
2018-12-09T10:09:49.589Z,12.50
2018-12-09T10:10:49.559Z,15.00
2018-12-09T10:11:49.503Z,14.40
2018-12-09T10:12:49.456Z,12.00
2018-12-09T10:13:49.475Z,11.10
2018-12-09T10:14:49.396Z,14.60
2018-12-09T10:15:49.321Z,13.20
2018-12-09T10:16:49.290Z,10.10
2018-12-09T10:17:49.231Z,12.70
2018-12-09T10:18:49.215Z,12.70
2018-12-09T10:19:49.149Z,16.60
2018-12-09T10:20:49.137Z,13.30
2018-12-09T10:21:49.060Z,12.90
2018-12-09T10:22:49.023Z,14.90
2018-12-09T10:23:48.983Z,12.50
2018-12-09T10:24:48.943Z,12.90
2018-12-09T10:25:48.891Z,12.70
2018-12-09T10:26:48.876Z,13.30
2018-12-09T10:27:48.822Z,14.10
2018-12-09T10:28:48.757Z,14.20
2018-12-09T10:29:48.738Z,12.50
2018-12-09T10:30:48.698Z,13.40
2018-12-09T10:31:48.662Z,14.50
2018-12-09T10:32:48.627Z,12.50
2018-12-09T10:33:49.562Z,14.70
2018-12-09T10:34:48.530Z,13.00
2018-12-09T10:35:48.465Z,13.60
2018-12-09T10:36:48.439Z,17.20
2018-12-09T10:37:48.382Z,15.40
2018-12-09T10:38:48.368Z,14.50
2018-12-09T10:39:48.296Z,16.30
2018-12-09T10:40:48.253Z,16.40
2018-12-09T10:41:48.249Z,15.50
2018-12-09T10:42:48.173Z,14.50
2018-12-09T10:43:48.125Z,13.90
2018-12-09T10:44:48.081Z,13.80
2018-12-09T10:45:48.029Z,11.80
2018-12-09T10:46:48.014Z,14.50
2018-12-09T10:47:47.944Z,14.40
2018-12-09T10:48:47.920Z,15.60
2018-12-09T10:49:47.872Z,15.10
2018-12-09T10:50:47.827Z,16.70
2018-12-09T10:51:47.804Z,14.40
2018-12-09T10:52:47.769Z,15.00
2018-12-09T10:53:47.692Z,17.30
2018-12-09T10:54:47.698Z,17.10
2018-12-09T10:55:47.614Z,15.80
2018-12-09T10:56:47.593Z,18.10
2018-12-09T10:57:47.530Z,18.40
2018-12-09T10:58:47.483Z,14.00
2018-12-09T10:59:47.467Z,14.00
2018-12-09T11:00:47.392Z,16.40
2018-12-09T11:01:47.348Z,11.60
2018-12-09T11:02:47.317Z,13.70
2018-12-09T11:03:47.301Z,15.10
2018-12-09T11:04:47.231Z,11.40
2018-12-09T11:05:47.189Z,14.20
2018-12-09T11:06:47.133Z,12.80
2018-12-09T11:07:47.111Z,15.10
2018-12-09T11:08:47.075Z,13.70
2018-12-09T11:09:47.015Z,16.40
2018-12-09T11:10:46.968Z,17.40
2018-12-09T11:11:46.919Z,12.50
2018-12-09T11:12:46.895Z,10.80
2018-12-09T11:13:46.877Z,12.50
2018-12-09T11:14:46.814Z,14.10
2018-12-09T11:15:46.764Z,11.20
2018-12-09T11:16:46.711Z,11.80
2018-12-09T11:17:46.683Z,12.70
2018-12-09T11:18:46.652Z,11.80
2018-12-09T11:19:46.591Z,13.60
2018-12-09T11:20:46.548Z,10.50
2018-12-09T11:21:46.509Z,14.20
2018-12-09T11:22:46.483Z,10.10
2018-12-09T11:23:46.450Z,10.80
2018-12-09T11:24:46.411Z,12.70
2018-12-09T11:25:46.367Z,9.60
2018-12-09T11:26:46.302Z,10.30
2018-12-09T11:27:46.272Z,11.60
2018-12-09T11:28:46.225Z,10.80
2018-12-09T11:29:46.161Z,11.30
2018-12-09T11:30:46.139Z,13.40
2018-12-09T11:31:46.132Z,13.30
2018-12-09T11:32:46.066Z,11.20
2018-12-09T11:33:46.038Z,12.30
2018-12-09T11:34:45.983Z,11.40
2018-12-09T11:35:45.935Z,12.00
2018-12-09T11:36:45.922Z,11.70
2018-12-09T11:37:45.838Z,11.60
2018-12-09T11:38:45.794Z,15.10
2018-12-09T11:39:45.773Z,12.90
2018-12-09T11:40:45.714Z,12.60
2018-12-09T11:41:45.692Z,12.80
2018-12-09T11:42:45.684Z,13.30
2018-12-09T11:43:45.606Z,12.80
2018-12-09T11:44:45.570Z,9.90
2018-12-09T11:45:45.545Z,12.00
2018-12-09T11:46:45.468Z,10.90
2018-12-09T11:47:45.469Z,13.60
2018-12-09T11:48:45.403Z,14.10
2018-12-09T11:49:45.373Z,13.10
2018-12-09T11:50:45.311Z,15.20
2018-12-09T11:51:45.263Z,12.60
2018-12-09T11:52:45.222Z,13.50
2018-12-09T11:53:45.181Z,14.00
2018-12-09T11:54:45.140Z,15.40
2018-12-09T11:55:45.147Z,13.10
2018-12-09T11:56:45.061Z,12.40
2018-12-09T11:57:45.023Z,11.60
2018-12-09T11:58:44.965Z,8.80
2018-12-09T11:59:44.993Z,5.90
2018-12-09T12:00:44.892Z,6.70
2018-12-09T12:01:44.863Z,6.60
2018-12-09T12:02:44.811Z,7.10
2018-12-09T12:03:44.778Z,5.80
2018-12-09T12:04:44.718Z,4.90
2018-12-09T12:05:44.703Z,4.90
2018-12-09T12:06:44.636Z,6.20
2018-12-09T12:07:44.621Z,4.00
2018-12-09T12:08:44.560Z,4.60
2018-12-09T12:09:44.503Z,2.70
2018-12-09T12:10:44.486Z,5.30
2018-12-09T12:11:44.418Z,4.60
2018-12-09T12:12:44.397Z,4.20
2018-12-09T12:13:44.359Z,3.40
2018-12-09T12:14:44.287Z,2.90
2018-12-09T12:15:44.377Z,4.60
2018-12-09T12:16:44.210Z,2.70
2018-12-09T12:17:44.192Z,3.60
2018-12-09T12:18:44.173Z,4.40
2018-12-09T12:19:44.098Z,4.30
2018-12-09T12:20:44.073Z,4.20
2018-12-09T12:21:44.010Z,3.20
2018-12-09T12:22:43.964Z,5.40
2018-12-09T12:23:43.919Z,3.80
2018-12-09T12:24:43.860Z,5.00
2018-12-09T12:25:43.821Z,4.80
2018-12-09T12:26:43.817Z,4.60
2018-12-09T12:27:43.743Z,2.60
2018-12-09T12:28:43.693Z,5.00
2018-12-09T12:29:43.651Z,2.90
2018-12-09T12:30:43.621Z,2.90
2018-12-09T12:31:43.570Z,3.20
2018-12-09T12:32:43.559Z,4.20
2018-12-09T12:33:43.487Z,4.30
2018-12-09T12:34:43.430Z,3.00
2018-12-09T12:35:43.391Z,4.40
2018-12-09T12:36:43.346Z,3.20
2018-12-09T12:37:43.337Z,3.70
2018-12-09T12:38:43.268Z,4.10
2018-12-09T12:39:43.229Z,4.20
2018-12-09T12:40:43.196Z,7.40
2018-12-09T12:41:43.134Z,6.90
2018-12-09T12:42:43.123Z,5.50
2018-12-09T12:43:43.218Z,3.90
2018-12-09T12:44:43.001Z,3.60
2018-12-09T12:45:42.971Z,3.90
2018-12-09T12:46:42.926Z,3.70
2018-12-09T12:47:42.901Z,3.00
2018-12-09T12:48:42.832Z,4.50
2018-12-09T12:49:42.794Z,5.50
2018-12-09T12:50:42.754Z,3.50
2018-12-09T12:51:42.758Z,2.90
2018-12-09T12:52:42.670Z,5.40
2018-12-09T12:53:42.609Z,4.10
2018-12-09T12:54:42.578Z,4.00
2018-12-09T12:55:42.547Z,4.50
2018-12-09T12:56:42.488Z,4.10
2018-12-09T12:57:42.479Z,4.60
2018-12-09T12:58:42.404Z,5.60
2018-12-09T12:59:42.360Z,3.90
2018-12-09T13:00:42.334Z,5.60